createdAt,value
2018-09-27T00:00:06.741Z,14.70
2018-09-27T00:02:35.208Z,14.80
2018-09-27T00:05:03.521Z,14.80
2018-09-27T00:07:31.925Z,14.70
2018-09-27T00:10:00.236Z,14.80
2018-09-27T00:12:28.504Z,14.80
2018-09-27T00:14:56.816Z,14.80
2018-09-27T00:17:25.080Z,14.80
2018-09-27T00:19:53.425Z,14.80
2018-09-27T00:22:21.729Z,14.70
2018-09-27T00:24:50.053Z,14.70
2018-09-27T00:27:18.375Z,14.70
2018-09-27T00:29:46.680Z,14.70
2018-09-27T00:32:15.173Z,14.70
2018-09-27T00:34:43.565Z,14.60
2018-09-27T00:37:11.913Z,14.70
2018-09-27T00:39:40.249Z,14.60
2018-09-27T00:42:08.546Z,14.60
2018-09-27T00:44:36.894Z,14.60
2018-09-27T00:47:05.286Z,14.60
2018-09-27T00:49:33.629Z,14.60
2018-09-27T00:52:01.969Z,14.60
2018-09-27T00:54:30.256Z,14.60
2018-09-27T00:56:58.556Z,14.60
2018-09-27T00:59:26.878Z,14.60
2018-09-27T01:01:57.068Z,14.60
2018-09-27T01:04:26.460Z,14.60
2018-09-27T01:06:54.786Z,14.60
2018-09-27T01:09:23.084Z,14.60
2018-09-27T01:11:51.413Z,14.60
2018-09-27T01:14:19.716Z,14.60
2018-09-27T01:16:48.021Z,14.60
2018-09-27T01:19:16.337Z,14.60
2018-09-27T01:21:44.684Z,14.60
2018-09-27T01:24:13.108Z,14.60
2018-09-27T01:26:41.425Z,14.60
2018-09-27T01:29:09.797Z,14.60
2018-09-27T01:31:38.134Z,14.60
2018-09-27T01:34:06.432Z,14.60
2018-09-27T01:36:34.871Z,14.60
2018-09-27T01:39:03.497Z,14.60
2018-09-27T01:41:31.782Z,14.60
2018-09-27T01:44:00.110Z,14.60
2018-09-27T01:46:28.400Z,14.60
2018-09-27T01:48:56.718Z,14.60
2018-09-27T01:51:25.037Z,14.60
2018-09-27T01:53:53.390Z,14.60
2018-09-27T01:56:21.684Z,14.60
2018-09-27T01:58:50.169Z,14.60
2018-09-27T02:01:18.474Z,14.60
2018-09-27T02:03:46.796Z,14.50
2018-09-27T02:06:15.424Z,14.60
2018-09-27T02:08:43.740Z,14.60
2018-09-27T02:11:12.034Z,14.60
2018-09-27T02:13:40.362Z,14.50
2018-09-27T02:16:08.680Z,14.50
2018-09-27T02:18:37.011Z,14.50
2018-09-27T02:21:05.343Z,14.60
2018-09-27T02:23:33.659Z,14.50
2018-09-27T02:26:02.042Z,14.50
2018-09-27T02:28:30.359Z,14.50
2018-09-27T02:30:58.731Z,14.50
2018-09-27T02:33:27.472Z,14.50
2018-09-27T02:35:55.769Z,14.50
2018-09-27T02:38:24.069Z,14.60
2018-09-27T02:40:52.957Z,14.50
2018-09-27T02:43:21.216Z,14.40
2018-09-27T02:45:49.597Z,14.50
2018-09-27T02:48:17.912Z,14.40
2018-09-27T02:50:46.192Z,14.40
2018-09-27T02:53:14.493Z,14.40
2018-09-27T02:55:42.812Z,14.40
2018-09-27T02:58:11.157Z,14.30
2018-09-27T03:00:39.468Z,14.40
2018-09-27T03:03:07.791Z,14.40
2018-09-27T03:05:36.149Z,14.40
2018-09-27T03:08:04.573Z,14.30
2018-09-27T03:10:32.906Z,14.30
2018-09-27T03:13:01.188Z,14.30
2018-09-27T03:15:29.484Z,14.30
2018-09-27T03:17:57.828Z,14.30
2018-09-27T03:20:26.135Z,14.20
2018-09-27T03:22:54.449Z,14.20
2018-09-27T03:25:22.821Z,14.20
2018-09-27T03:27:51.182Z,14.20
2018-09-27T03:30:19.488Z,14.20
2018-09-27T03:32:47.801Z,14.20
2018-09-27T03:35:16.113Z,14.20
2018-09-27T03:37:44.713Z,14.20
2018-09-27T03:40:13.150Z,14.10
2018-09-27T03:42:41.376Z,14.10
2018-09-27T03:45:09.680Z,14.10
2018-09-27T03:47:38.040Z,14.10
2018-09-27T03:50:06.615Z,14.10
2018-09-27T03:52:34.930Z,14.10
2018-09-27T03:55:03.377Z,14.10
2018-09-27T03:57:31.735Z,14.10
2018-09-27T04:00:00.073Z,14.10
2018-09-27T04:02:28.436Z,14.10
2018-09-27T04:04:57.359Z,14.10
2018-09-27T04:07:25.699Z,14.10
2018-09-27T04:09:54.012Z,14.00
2018-09-27T04:12:22.407Z,14.00
2018-09-27T04:14:50.765Z,14.10
2018-09-27T04:17:19.125Z,14.10
2018-09-27T04:19:47.453Z,14.10
2018-09-27T04:22:16.155Z,14.10
2018-09-27T04:24:44.469Z,14.00
2018-09-27T04:27:12.827Z,14.00
2018-09-27T04:29:41.149Z,14.00
2018-09-27T04:32:09.483Z,13.90
2018-09-27T04:34:37.789Z,13.90
2018-09-27T04:37:06.168Z,13.90
2018-09-27T04:39:34.580Z,13.90
2018-09-27T04:42:02.953Z,13.90
2018-09-27T04:44:31.249Z,13.90
2018-09-27T04:46:59.578Z,13.90
2018-09-27T04:49:28.389Z,13.90
2018-09-27T04:51:56.771Z,13.90
2018-09-27T04:54:25.293Z,13.90
2018-09-27T04:56:53.537Z,13.90
2018-09-27T04:59:21.880Z,13.90
2018-09-27T05:01:50.182Z,13.90
2018-09-27T05:04:18.489Z,13.80
2018-09-27T05:06:46.785Z,13.80
2018-09-27T05:09:15.096Z,13.80
2018-09-27T05:11:43.469Z,13.80
2018-09-27T05:14:11.821Z,13.80
2018-09-27T05:16:40.111Z,13.80
2018-09-27T05:19:08.454Z,13.80
2018-09-27T05:21:36.913Z,13.80
2018-09-27T05:24:05.153Z,13.80
2018-09-27T05:26:34.246Z,13.80
2018-09-27T05:29:02.547Z,13.80
2018-09-27T05:31:30.828Z,13.70
2018-09-27T05:34:01.473Z,13.70
2018-09-27T05:36:29.913Z,13.70
2018-09-27T05:38:58.231Z,13.70
2018-09-27T05:41:26.802Z,13.70
2018-09-27T05:43:59.491Z,13.60
2018-09-27T05:46:28.360Z,13.60
2018-09-27T05:49:12.504Z,13.60
2018-09-27T05:51:41.344Z,13.60
2018-09-27T05:54:09.740Z,13.60
2018-09-27T05:56:39.361Z,13.60
2018-09-27T05:59:07.874Z,13.60
2018-09-27T06:01:36.201Z,13.60
2018-09-27T06:04:05.410Z,13.60
2018-09-27T06:06:34.914Z,13.60
2018-09-27T06:09:05.284Z,13.60
2018-09-27T06:11:34.045Z,13.60
2018-09-27T06:14:03.227Z,13.60
2018-09-27T06:16:32.472Z,13.60
2018-09-27T06:19:00.784Z,13.70
2018-09-27T06:21:29.076Z,13.70
2018-09-27T06:23:57.349Z,13.70
2018-09-27T06:26:26.106Z,13.70
2018-09-27T06:28:54.466Z,13.70
2018-09-27T06:31:22.845Z,13.70
2018-09-27T06:33:51.221Z,13.70
2018-09-27T06:36:19.536Z,13.70
2018-09-27T06:39:04.979Z,13.70
2018-09-27T06:41:33.393Z,13.70
2018-09-27T06:44:02.519Z,13.80
2018-09-27T06:46:31.339Z,13.80
2018-09-27T06:48:59.688Z,13.80
2018-09-27T06:51:28.042Z,13.80
2018-09-27T06:53:58.741Z,13.80
2018-09-27T06:56:29.664Z,13.80
2018-09-27T06:58:58.478Z,13.80
2018-09-27T07:01:26.827Z,13.80
2018-09-27T07:03:55.146Z,13.80
2018-09-27T07:06:29.102Z,13.90
2018-09-27T07:08:57.606Z,13.90
2018-09-27T07:11:28.516Z,14.00
2018-09-27T07:14:00.375Z,14.00
2018-09-27T07:16:28.689Z,14.00
2018-09-27T07:18:57.187Z,14.00
2018-09-27T07:21:28.020Z,14.00
2018-09-27T07:23:56.346Z,14.00
2018-09-27T07:26:24.724Z,14.10
2018-09-27T07:28:53.380Z,14.10
2018-09-27T07:31:21.786Z,14.10
2018-09-27T07:33:50.432Z,14.10
2018-09-27T07:36:21.612Z,14.10
2018-09-27T07:38:51.075Z,14.20
2018-09-27T07:41:19.627Z,14.30
2018-09-27T07:43:48.105Z,14.30
2018-09-27T07:46:16.423Z,14.30
2018-09-27T07:48:44.781Z,14.40
2018-09-27T07:51:16.208Z,14.40
2018-09-27T07:53:44.509Z,14.50
2018-09-27T07:56:14.337Z,14.40
2018-09-27T07:58:43.968Z,14.50
2018-09-27T08:01:12.322Z,14.60
2018-09-27T08:03:40.777Z,14.60
2018-09-27T08:06:09.294Z,14.60
2018-09-27T08:08:37.812Z,14.70
2018-09-27T08:11:11.806Z,14.70
2018-09-27T08:13:40.422Z,14.70
2018-09-27T08:16:09.388Z,14.80
2018-09-27T08:18:37.703Z,14.80
2018-09-27T08:21:06.606Z,14.90
2018-09-27T08:23:35.034Z,14.90
2018-09-27T08:26:03.384Z,15.00
2018-09-27T08:28:32.114Z,15.00
2018-09-27T08:31:02.995Z,15.10
2018-09-27T08:33:31.456Z,15.20
2018-09-27T08:35:59.806Z,15.20
2018-09-27T08:38:28.365Z,15.20
2018-09-27T08:40:56.838Z,15.30
2018-09-27T08:43:25.367Z,15.30
2018-09-27T08:45:53.819Z,15.40
2018-09-27T08:48:34.825Z,15.40
2018-09-27T08:51:04.088Z,15.50
2018-09-27T08:53:32.421Z,15.50
2018-09-27T08:56:00.767Z,15.60
2018-09-27T08:58:29.022Z,15.60
2018-09-27T09:00:57.331Z,15.60
2018-09-27T09:03:25.667Z,15.70
2018-09-27T09:05:54.190Z,15.80
2018-09-27T09:08:22.836Z,15.80
2018-09-27T09:10:51.328Z,15.90
2018-09-27T09:13:19.645Z,15.90
2018-09-27T09:15:48.004Z,15.90
2018-09-27T09:18:16.347Z,16.00
2018-09-27T09:20:44.700Z,16.00
2018-09-27T09:23:13.137Z,16.10
2018-09-27T09:25:41.566Z,16.10
2018-09-27T09:28:10.840Z,16.10
2018-09-27T09:30:39.721Z,16.20
2018-09-27T09:33:08.060Z,16.20
2018-09-27T09:35:36.459Z,16.20
2018-09-27T09:38:04.909Z,16.20
2018-09-27T09:40:33.225Z,16.20
2018-09-27T09:43:01.929Z,16.20
2018-09-27T09:45:30.569Z,16.30
2018-09-27T09:47:58.872Z,16.30
2018-09-27T09:50:27.165Z,16.30
2018-09-27T09:53:04.382Z,16.20
2018-09-27T09:55:32.659Z,16.30
2018-09-27T09:58:01.002Z,16.30
2018-09-27T10:00:29.365Z,16.30
2018-09-27T10:02:57.656Z,16.30
2018-09-27T10:05:26.297Z,16.30
2018-09-27T10:07:54.545Z,16.40
2018-09-27T10:10:23.051Z,16.40
2018-09-27T10:12:51.376Z,16.40
2018-09-27T10:15:19.708Z,16.50
2018-09-27T10:17:48.354Z,16.50
2018-09-27T10:20:16.715Z,16.60
2018-09-27T10:22:45.041Z,16.60
2018-09-27T10:25:13.663Z,16.70
2018-09-27T10:27:42.014Z,16.70
2018-09-27T10:30:10.827Z,16.80
2018-09-27T10:32:39.111Z,16.90
2018-09-27T10:35:07.449Z,16.90
2018-09-27T10:37:35.780Z,17.00
2018-09-27T10:40:04.568Z,17.00
2018-09-27T10:42:33.258Z,17.00
2018-09-27T10:45:03.017Z,17.10
2018-09-27T10:47:31.339Z,17.10
2018-09-27T10:50:00.477Z,17.10
2018-09-27T10:52:28.817Z,17.10
2018-09-27T10:54:57.204Z,17.20
2018-09-27T10:57:25.583Z,17.30
2018-09-27T10:59:56.402Z,17.30
2018-09-27T11:02:25.527Z,17.30
2018-09-27T11:04:54.008Z,17.40
2018-09-27T11:07:22.341Z,17.40
2018-09-27T11:09:50.763Z,17.40
2018-09-27T11:12:19.090Z,17.50
2018-09-27T11:14:51.912Z,17.50
2018-09-27T11:17:20.525Z,17.50
2018-09-27T11:19:48.892Z,17.60
2018-09-27T11:22:17.213Z,17.60
2018-09-27T11:24:45.535Z,17.60
2018-09-27T11:27:16.538Z,17.60
2018-09-27T11:29:51.936Z,17.70
2018-09-27T11:32:25.740Z,17.80
2018-09-27T11:34:54.084Z,17.80
2018-09-27T11:37:23.717Z,17.90
2018-09-27T11:39:52.095Z,17.90
2018-09-27T11:42:21.342Z,18.00
2018-09-27T11:44:49.603Z,18.00
2018-09-27T11:47:18.012Z,18.00
2018-09-27T11:49:46.531Z,18.00
2018-09-27T11:52:14.985Z,18.00
2018-09-27T11:54:43.389Z,18.10
2018-09-27T11:57:11.820Z,18.10
2018-09-27T11:59:40.241Z,18.10
2018-09-27T12:02:08.629Z,18.10
2018-09-27T12:04:37.326Z,18.20
2018-09-27T12:07:06.091Z,18.20
2018-09-27T12:09:34.456Z,18.20
2018-09-27T12:12:05.522Z,18.20
2018-09-27T12:14:34.061Z,18.20
2018-09-27T12:17:02.365Z,18.20
2018-09-27T12:19:30.797Z,18.20
2018-09-27T12:21:59.493Z,18.20
2018-09-27T12:24:27.937Z,18.20
2018-09-27T12:26:56.569Z,18.20
2018-09-27T12:29:25.091Z,18.20
2018-09-27T12:31:53.471Z,18.30
2018-09-27T12:34:22.022Z,18.40
2018-09-27T12:36:50.589Z,18.40
2018-09-27T12:39:18.937Z,18.50
2018-09-27T12:41:47.841Z,18.60
2018-09-27T12:44:16.493Z,18.60
2018-09-27T12:46:44.959Z,18.60
2018-09-27T12:49:13.422Z,18.70
2018-09-27T12:51:42.824Z,18.70
2018-09-27T12:54:11.348Z,18.80
2018-09-27T12:56:39.940Z,18.80
2018-09-27T12:59:08.651Z,18.90
2018-09-27T13:01:38.228Z,19.00
2018-09-27T13:04:06.916Z,19.00
2018-09-27T13:06:35.310Z,19.10
2018-09-27T13:09:04.362Z,19.10
2018-09-27T13:11:32.605Z,19.20
2018-09-27T13:14:00.924Z,19.30
2018-09-27T13:16:29.451Z,19.30
2018-09-27T13:18:58.060Z,19.40
2018-09-27T13:21:26.767Z,19.40
2018-09-27T13:23:55.324Z,19.50
2018-09-27T13:26:30.537Z,19.60
2018-09-27T13:28:58.897Z,19.70
2018-09-27T13:31:27.382Z,19.70
2018-09-27T13:33:56.173Z,19.80
2018-09-27T13:36:24.608Z,19.80
2018-09-27T13:38:53.226Z,19.80
2018-09-27T13:41:21.609Z,19.80
2018-09-27T13:43:56.346Z,19.80
2018-09-27T13:46:25.593Z,19.90
2018-09-27T13:48:54.198Z,19.90
2018-09-27T13:51:22.539Z,19.90
2018-09-27T13:53:50.857Z,20.00
2018-09-27T13:56:22.308Z,20.00
2018-09-27T13:58:50.742Z,20.00
2018-09-27T14:01:19.082Z,20.10
2018-09-27T14:03:47.451Z,20.00
2018-09-27T14:06:15.839Z,20.10
2018-09-27T14:08:44.241Z,20.00
2018-09-27T14:11:12.635Z,20.00
2018-09-27T14:13:41.054Z,20.10
2018-09-27T14:16:09.502Z,20.00
2018-09-27T14:18:37.832Z,20.00
2018-09-27T14:21:09.294Z,20.00
2018-09-27T14:23:37.632Z,19.90
2018-09-27T14:26:06.411Z,19.90
2018-09-27T14:28:34.749Z,19.90
2018-09-27T14:31:07.137Z,19.80
2018-09-27T14:33:48.868Z,19.80
2018-09-27T14:36:36.806Z,19.80
2018-09-27T14:39:33.654Z,19.70
2018-09-27T14:42:02.305Z,19.70
2018-09-27T14:44:30.874Z,19.60
2018-09-27T14:46:59.353Z,19.50
2018-09-27T14:49:27.808Z,19.60
2018-09-27T14:51:56.159Z,19.50
2018-09-27T14:54:24.772Z,19.50
2018-09-27T14:56:54.068Z,19.40
2018-09-27T14:59:22.442Z,19.40
2018-09-27T15:01:51.196Z,19.40
2018-09-27T15:04:19.751Z,19.30
2018-09-27T15:20:02.829Z,19.40
2018-09-27T15:22:31.279Z,19.20
2018-09-27T15:24:59.724Z,19.10
2018-09-27T15:27:28.431Z,19.20
2018-09-27T15:29:57.004Z,19.00
2018-09-27T15:32:26.174Z,19.00
2018-09-27T15:35:09.231Z,18.90
2018-09-27T15:37:37.609Z,18.90
2018-09-27T15:40:06.163Z,18.80
2018-09-27T15:42:34.685Z,18.80
2018-09-27T15:45:03.138Z,18.80
2018-09-27T15:47:31.562Z,18.70
2018-09-27T15:49:59.890Z,18.70
2018-09-27T15:52:28.304Z,18.60
2018-09-27T15:54:56.960Z,18.60
2018-09-27T15:57:25.801Z,18.50
2018-09-27T15:59:57.377Z,18.40
2018-09-27T16:02:25.900Z,18.40
2018-09-27T16:04:54.217Z,18.30
2018-09-27T16:07:22.842Z,18.20
2018-09-27T16:09:51.199Z,18.20
2018-09-27T16:12:19.609Z,18.10
2018-09-27T16:14:47.995Z,18.10
2018-09-27T16:17:16.338Z,18.00
2018-09-27T16:19:44.707Z,17.90
2018-09-27T16:22:13.241Z,17.90
2018-09-27T16:24:42.215Z,17.80
2018-09-27T16:27:10.521Z,17.80
2018-09-27T16:29:38.994Z,17.70
2018-09-27T16:32:07.311Z,17.70
2018-09-27T16:34:35.752Z,17.80
2018-09-27T16:37:09.112Z,17.70
2018-09-27T16:39:37.563Z,17.60
2018-09-27T16:42:07.498Z,17.60
2018-09-27T16:44:36.536Z,17.60
2018-09-27T16:47:04.905Z,17.50
2018-09-27T16:49:33.273Z,17.50
2018-09-27T16:52:01.682Z,17.50
2018-09-27T16:54:29.948Z,17.50
2018-09-27T16:56:59.274Z,17.50
2018-09-27T16:59:27.718Z,17.40
2018-09-27T17:01:56.157Z,17.40
2018-09-27T17:04:24.509Z,17.40
2018-09-27T17:06:52.868Z,17.30
2018-09-27T17:09:21.170Z,17.30
2018-09-27T17:11:49.545Z,17.20
2018-09-27T17:14:17.931Z,17.20
2018-09-27T17:16:46.314Z,17.10
2018-09-27T17:19:14.705Z,17.10
2018-09-27T17:21:43.023Z,17.00
2018-09-27T17:24:11.378Z,17.00
2018-09-27T17:26:39.988Z,16.90
2018-09-27T17:29:08.450Z,16.80
2018-09-27T17:31:36.848Z,16.80
2018-09-27T17:34:06.191Z,16.70
2018-09-27T17:36:34.522Z,16.60
2018-09-27T17:39:08.409Z,16.60
2018-09-27T17:41:36.790Z,16.50
2018-09-27T17:44:13.634Z,16.40
2018-09-27T17:46:42.090Z,16.40
2018-09-27T17:49:10.469Z,16.30
2018-09-27T17:51:38.868Z,16.20
2018-09-27T17:54:07.612Z,16.10
2018-09-27T17:56:36.242Z,16.00
2018-09-27T17:59:04.765Z,16.00
2018-09-27T18:01:33.119Z,15.90
2018-09-27T18:04:02.361Z,15.90
2018-09-27T18:06:30.817Z,15.80
2018-09-27T18:08:59.281Z,15.80
2018-09-27T18:11:27.664Z,15.70
2018-09-27T18:13:56.177Z,15.70
2018-09-27T18:16:24.476Z,15.60
2018-09-27T18:18:52.873Z,15.50
2018-09-27T18:21:21.177Z,15.50
2018-09-27T18:23:49.647Z,15.40
2018-09-27T18:26:18.044Z,15.40
2018-09-27T18:28:46.421Z,15.30
2018-09-27T18:31:14.770Z,15.30
2018-09-27T18:33:44.839Z,15.20
2018-09-27T18:36:14.691Z,15.20
2018-09-27T18:38:43.057Z,15.10
2018-09-27T18:41:11.669Z,15.10
2018-09-27T18:43:40.279Z,15.00
2018-09-27T18:46:09.062Z,15.00
2018-09-27T18:48:38.668Z,15.00
2018-09-27T18:51:07.527Z,14.90
2018-09-27T18:53:35.860Z,14.90
2018-09-27T18:56:04.505Z,14.80
2018-09-27T18:58:32.793Z,14.80
2018-09-27T19:01:01.121Z,14.70
2018-09-27T19:03:29.405Z,14.70
2018-09-27T19:05:57.757Z,14.60
2018-09-27T19:08:26.093Z,14.60
2018-09-27T19:10:55.045Z,14.60
2018-09-27T19:13:23.373Z,14.60
2018-09-27T19:15:51.648Z,14.50
2018-09-27T19:18:20.058Z,14.50
2018-09-27T19:20:48.418Z,14.50
2018-09-27T19:23:16.784Z,14.40
2018-09-27T19:25:45.090Z,14.40
2018-09-27T19:28:13.839Z,14.40
2018-09-27T19:30:42.223Z,14.40
2018-09-27T19:33:10.625Z,14.30
2018-09-27T19:35:39.096Z,14.30
2018-09-27T19:38:07.713Z,14.20
2018-09-27T19:40:36.413Z,14.20
2018-09-27T19:43:04.809Z,14.20
2018-09-27T19:45:33.116Z,14.10
2018-09-27T19:48:01.485Z,14.10
2018-09-27T19:50:29.813Z,14.10
2018-09-27T19:52:58.265Z,14.10
2018-09-27T19:55:26.813Z,14.00
2018-09-27T19:57:55.186Z,14.00
2018-09-27T20:00:23.581Z,14.00
2018-09-27T20:02:51.885Z,14.00
2018-09-27T20:05:20.213Z,14.00
2018-09-27T20:07:48.617Z,14.00
2018-09-27T20:10:17.151Z,14.00
2018-09-27T20:12:45.630Z,13.90
2018-09-27T20:15:13.911Z,13.90
2018-09-27T20:17:42.292Z,13.90
2018-09-27T20:20:10.760Z,13.90
2018-09-27T20:22:39.078Z,13.90
2018-09-27T20:25:07.467Z,13.90
2018-09-27T20:27:35.790Z,13.90
2018-09-27T20:30:04.160Z,13.90
2018-09-27T20:32:32.464Z,13.80
2018-09-27T20:35:00.883Z,13.80
2018-09-27T20:37:29.304Z,13.80
2018-09-27T20:39:57.626Z,13.90
2018-09-27T20:42:26.208Z,13.80
2018-09-27T20:44:54.547Z,13.80
2018-09-27T20:47:22.857Z,13.80
2018-09-27T20:49:51.224Z,13.80
2018-09-27T20:52:19.536Z,13.80
2018-09-27T20:54:47.907Z,13.90
2018-09-27T20:57:16.218Z,13.90
2018-09-27T20:59:44.619Z,13.90
2018-09-27T21:02:12.931Z,13.90
2018-09-27T21:04:41.291Z,13.90
2018-09-27T21:07:09.705Z,13.90
2018-09-27T21:09:38.045Z,14.00
2018-09-27T21:12:06.509Z,14.00
2018-09-27T21:14:34.993Z,14.00
2018-09-27T21:17:03.313Z,14.00
2018-09-27T21:19:31.685Z,14.00
2018-09-27T21:21:59.960Z,14.00
2018-09-27T21:24:28.269Z,14.00
2018-09-27T21:26:56.590Z,14.00
2018-09-27T21:29:24.919Z,14.00
2018-09-27T21:31:53.279Z,14.00
2018-09-27T21:34:21.593Z,14.00
2018-09-27T21:36:50.010Z,14.00
2018-09-27T21:39:18.592Z,14.10
2018-09-27T21:41:46.897Z,14.10
2018-09-27T21:44:18.052Z,14.10
2018-09-27T21:46:47.282Z,14.00
2018-09-27T21:49:18.778Z,14.10
2018-09-27T21:51:47.491Z,14.10
2018-09-27T21:54:16.351Z,14.10
2018-09-27T21:56:45.305Z,14.10
2018-09-27T21:59:13.890Z,14.10
2018-09-27T22:01:42.225Z,14.10
2018-09-27T22:04:10.572Z,14.10
2018-09-27T22:06:39.099Z,14.10
2018-09-27T22:09:09.398Z,14.10
2018-09-27T22:11:38.208Z,14.10
2018-09-27T22:14:06.806Z,14.10
2018-09-27T22:16:35.421Z,14.00
2018-09-27T22:19:03.781Z,14.00
2018-09-27T22:21:32.064Z,14.00
2018-09-27T22:24:00.417Z,14.00
2018-09-27T22:26:28.821Z,14.00
2018-09-27T22:29:00.408Z,14.00
2018-09-27T22:31:35.574Z,14.00
2018-09-27T22:34:04.212Z,14.00
2018-09-27T22:36:32.546Z,14.00
2018-09-27T22:39:00.836Z,14.00
2018-09-27T22:41:29.148Z,14.00
2018-09-27T22:43:57.425Z,14.00
2018-09-27T22:46:25.738Z,14.00
2018-09-27T22:48:54.289Z,14.10
2018-09-27T22:51:22.582Z,14.10
2018-09-27T22:53:50.940Z,14.10
2018-09-27T22:56:20.416Z,14.10
2018-09-27T22:58:49.508Z,14.10
2018-09-27T23:01:18.535Z,14.10
2018-09-27T23:03:47.890Z,14.10
2018-09-27T23:06:16.425Z,14.10
2018-09-27T23:08:44.947Z,14.10
2018-09-27T23:11:14.117Z,14.10
2018-09-27T23:13:43.746Z,14.10
2018-09-27T23:16:12.365Z,14.10
2018-09-27T23:18:41.374Z,14.10
2018-09-27T23:21:10.501Z,14.10
2018-09-27T23:25:16.211Z,14.10
2018-09-27T23:27:47.595Z,14.10
2018-09-27T23:30:17.812Z,14.10
2018-09-27T23:32:46.602Z,14.10
2018-09-27T23:35:19.257Z,14.00
2018-09-27T23:37:55.342Z,14.00
2018-09-27T23:40:23.970Z,14.00
2018-09-27T23:42:53.398Z,14.00
2018-09-27T23:45:23.440Z,14.00
2018-09-27T23:47:52.188Z,14.00
2018-09-27T23:50:21.829Z,14.00
2018-09-27T23:52:50.445Z,14.00
2018-09-27T23:55:19.502Z,14.00
2018-09-27T23:57:47.930Z,14.00
